Time,TemperatureF,DewpointF,PressureIn,WindDirection,WindDirectionDegrees,WindSpeedMPH,WindSpeedGustMPH,Humidity,HourlyPrecipIn,Conditions,Clouds,dailyrainin,SolarRadiationWatts/m^2,SoftwareType,DateUTC
2013-03-01 00:01:00,22.0,10.0,-100.00,NNE,29,0.0,0.0,59,0.00,,,0.00,0.000000,,2013-03-01 07:01:00,
2013-03-01 00:32:00,20.0,8.0,-100.00,North,6,0.0,0.0,60,0.00,,,0.00,0.000000,,2013-03-01 07:32:00,
2013-03-01 00:42:00,20.0,8.0,-100.00,North,6,0.0,0.0,60,0.00,,,0.00,0.000000,,2013-03-01 07:42:00,
2013-03-01 00:52:00,20.0,8.0,-100.00,North,6,0.0,0.0,60,0.00,,,0.00,0.000000,,2013-03-01 07:52:00,
2013-03-01 01:01:00,20.0,8.0,-100.00,North,6,0.0,0.0,60,0.00,,,0.00,0.000000,,2013-03-01 08:01:00,
2013-03-01 01:32:00,19.0,9.0,-100.00,NW,322,0.0,0.0,65,0.00,,,0.00,0.000000,,2013-03-01 08:32:00,
2013-03-01 01:43:00,19.0,9.0,-100.00,NW,322,0.0,0.0,65,0.00,,,0.00,0.000000,,2013-03-01 08:43:00,
2013-03-01 01:53:00,19.0,9.0,-100.00,NW,322,0.0,0.0,65,0.00,,,0.00,0.000000,,2013-03-01 08:53:00,
2013-03-01 02:02:00,19.0,9.0,-100.00,NW,322,0.0,0.0,65,0.00,,,0.00,0.000000,,2013-03-01 09:02:00,
2013-03-01 02:32:00,19.0,11.0,-100.00,NNW,339,0.0,0.0,69,0.00,,,0.00,0.000000,,2013-03-01 09:32:00,
2013-03-01 02:42:00,19.0,11.0,-100.00,NNW,339,0.0,0.0,69,0.00,,,0.00,0.000000,,2013-03-01 09:42:00,
2013-03-01 02:52:00,19.0,11.0,-100.00,NNW,339,0.0,0.0,69,0.00,,,0.00,0.000000,,2013-03-01 09:52:00,
2013-03-01 03:01:00,19.0,11.0,-100.00,NNW,339,0.0,0.0,69,0.00,,,0.00,0.000000,,2013-03-01 10:01:00,
2013-03-01 03:32:00,17.0,9.0,-100.00,NNE,12,0.0,0.0,70,0.00,,,0.00,0.000000,,2013-03-01 10:32:00,
2013-03-01 03:42:00,17.0,9.0,-100.00,NNE,12,0.0,0.0,70,0.00,,,0.00,0.000000,,2013-03-01 10:42:00,
2013-03-01 03:52:00,17.0,9.0,-100.00,NNE,12,0.0,0.0,70,0.00,,,0.00,0.000000,,2013-03-01 10:52:00,
2013-03-01 04:01:00,17.0,9.0,-100.00,NNE,12,0.0,0.0,70,0.00,,,0.00,0.000000,,2013-03-01 11:01:00,
2013-03-01 04:32:00,16.0,9.0,-100.00,NNE,15,0.0,0.0,72,0.00,,,0.00,0.000000,,2013-03-01 11:32:00,
2013-03-01 04:42:00,16.0,9.0,-100.00,NNE,15,0.0,0.0,72,0.00,,,0.00,0.000000,,2013-03-01 11:42:00,
2013-03-01 04:52:00,16.0,9.0,-100.00,NNE,15,0.0,0.0,72,0.00,,,0.00,0.000000,,2013-03-01 11:52:00,
2013-03-01 05:01:00,16.0,9.0,-100.00,NNE,15,0.0,0.0,72,0.00,,,0.00,0.000000,,2013-03-01 12:01:00,
2013-03-01 05:32:00,17.0,11.0,-100.00,SW,226,0.0,0.0,77,-99.99,,,0.00,0.000000,,2013-03-01 12:32:00,
2013-03-01 05:42:00,17.0,11.0,-100.00,SW,226,0.0,0.0,77,-99.99,,,0.00,0.000000,,2013-03-01 12:42:00,
2013-03-01 05:52:00,17.0,11.0,-100.00,SW,226,0.0,0.0,77,-99.99,,,0.00,0.000000,,2013-03-01 12:52:00,
2013-03-01 06:01:00,17.0,11.0,-100.00,SW,226,0.0,0.0,77,-99.99,,,0.00,0.000000,,2013-03-01 13:01:00,
2013-03-01 06:32:00,19.0,10.0,-100.00,WSW,252,0.0,0.0,66,0.00,,,0.00,0.000000,,2013-03-01 13:32:00,
2013-03-01 06:42:00,19.0,10.0,-100.00,WSW,252,0.0,0.0,66,0.00,,,0.00,0.000000,,2013-03-01 13:42:00,
2013-03-01 06:52:00,19.0,10.0,-100.00,WSW,252,0.0,0.0,66,0.00,,,0.00,0.000000,,2013-03-01 13:52:00,
2013-03-01 07:01:00,19.0,10.0,-100.00,WSW,252,0.0,0.0,66,0.00,,,0.00,0.000000,,2013-03-01 14:01:00,
2013-03-01 07:32:00,17.0,11.0,-100.00,NW,318,0.0,0.0,76,0.00,,,0.00,2.000000,,2013-03-01 14:32:00,
2013-03-01 07:42:00,17.0,11.0,-100.00,NW,318,0.0,0.0,76,0.00,,,0.00,2.000000,,2013-03-01 14:42:00,
2013-03-01 07:52:00,17.0,11.0,-100.00,NW,318,0.0,0.0,76,0.00,,,0.00,2.000000,,2013-03-01 14:52:00,
2013-03-01 08:01:00,17.0,11.0,-100.00,NW,318,0.0,0.0,76,0.00,,,0.00,2.000000,,2013-03-01 15:01:00,
2013-03-01 08:32:00,28.0,18.0,-100.00,ENE,71,0.0,0.0,67,0.00,,,0.00,121.000000,,2013-03-01 15:32:00,
2013-03-01 08:42:00,28.0,18.0,-100.00,ENE,71,0.0,0.0,67,0.00,,,0.00,121.000000,,2013-03-01 15:42:00,
2013-03-01 08:52:00,28.0,18.0,-100.00,ENE,71,0.0,0.0,67,0.00,,,0.00,121.000000,,2013-03-01 15:52:00,
2013-03-01 09:01:00,28.0,18.0,-100.00,ENE,71,0.0,0.0,67,0.00,,,0.00,121.000000,,2013-03-01 16:01:00,
2013-03-01 09:32:00,39.0,18.0,-100.00,ENE,60,4.0,8.0,43,0.00,,,0.00,333.000000,,2013-03-01 16:32:00,
2013-03-01 09:42:00,39.0,18.0,-100.00,ENE,60,4.0,8.0,43,0.00,,,0.00,333.000000,,2013-03-01 16:42:00,
2013-03-01 09:52:00,39.0,18.0,-100.00,ENE,60,4.0,8.0,43,0.00,,,0.00,333.000000,,2013-03-01 16:52:00,
2013-03-01 10:01:00,39.0,18.0,-100.00,ENE,60,4.0,8.0,43,0.00,,,0.00,333.000000,,2013-03-01 17:01:00,
2013-03-01 10:32:00,47.0,21.0,-100.00,ENE,62,10.0,17.0,35,0.00,,,0.00,523.000000,,2013-03-01 17:32:00,
2013-03-01 10:42:00,47.0,21.0,-100.00,ENE,62,10.0,17.0,35,0.00,,,0.00,523.000000,,2013-03-01 17:42:00,
2013-03-01 10:52:00,47.0,21.0,-100.00,ENE,62,10.0,17.0,35,0.00,,,0.00,523.000000,,2013-03-01 17:52:00,
2013-03-01 11:01:00,47.0,21.0,-100.00,ENE,62,10.0,17.0,35,0.00,,,0.00,523.000000,,2013-03-01 18:01:00,
2013-03-01 11:32:00,48.0,20.0,-100.00,ENE,69,15.0,25.0,32,0.00,,,0.00,670.000000,,2013-03-01 18:32:00,
2013-03-01 11:42:00,48.0,20.0,-100.00,ENE,69,15.0,25.0,32,0.00,,,0.00,670.000000,,2013-03-01 18:42:00,
2013-03-01 11:52:00,48.0,20.0,-100.00,ENE,69,15.0,25.0,32,0.00,,,0.00,670.000000,,2013-03-01 18:52:00,
2013-03-01 12:01:00,48.0,20.0,-100.00,ENE,69,15.0,25.0,32,0.00,,,0.00,670.000000,,2013-03-01 19:01:00,
2013-03-01 12:32:00,51.0,21.0,-100.00,ENE,76,12.0,22.0,30,0.00,,,0.00,760.000000,,2013-03-01 19:32:00,
2013-03-01 12:42:00,51.0,21.0,-100.00,ENE,76,12.0,22.0,30,0.00,,,0.00,760.000000,,2013-03-01 19:42:00,
2013-03-01 12:52:00,51.0,21.0,-100.00,ENE,76,12.0,22.0,30,0.00,,,0.00,760.000000,,2013-03-01 19:52:00,
2013-03-01 13:01:00,51.0,21.0,-100.00,ENE,76,12.0,22.0,30,0.00,,,0.00,760.000000,,2013-03-01 20:01:00,
2013-03-01 13:32:00,53.0,22.0,-100.00,ENE,69,11.0,21.0,29,0.00,,,0.00,788.000000,,2013-03-01 20:32:00,
2013-03-01 13:42:00,53.0,22.0,-100.00,ENE,69,11.0,21.0,29,0.00,,,0.00,788.000000,,2013-03-01 20:42:00,
2013-03-01 13:52:00,53.0,22.0,-100.00,ENE,69,11.0,21.0,29,0.00,,,0.00,788.000000,,2013-03-01 20:52:00,
2013-03-01 14:01:00,53.0,22.0,-100.00,ENE,69,11.0,21.0,29,0.00,,,0.00,788.000000,,2013-03-01 21:01:00,
2013-03-01 14:32:00,54.0,21.0,-100.00,NE,56,11.0,21.0,27,0.00,,,0.00,753.000000,,2013-03-01 21:32:00,
2013-03-01 14:42:00,54.0,21.0,-100.00,NE,56,11.0,21.0,27,0.00,,,0.00,753.000000,,2013-03-01 21:42:00,
2013-03-01 14:52:00,54.0,21.0,-100.00,NE,56,11.0,21.0,27,0.00,,,0.00,753.000000,,2013-03-01 21:52:00,
2013-03-01 15:01:00,54.0,21.0,-100.00,NE,56,11.0,21.0,27,0.00,,,0.00,753.000000,,2013-03-01 22:01:00,
2013-03-01 15:32:00,54.0,21.0,-100.00,NE,50,13.0,21.0,27,0.00,,,0.00,653.000000,,2013-03-01 22:32:00,
2013-03-01 15:42:00,54.0,21.0,-100.00,NE,50,13.0,21.0,27,0.00,,,0.00,653.000000,,2013-03-01 22:42:00,
2013-03-01 15:52:00,54.0,21.0,-100.00,NE,50,13.0,21.0,27,0.00,,,0.00,653.000000,,2013-03-01 22:52:00,
2013-03-01 16:01:00,54.0,21.0,-100.00,NE,50,13.0,21.0,27,0.00,,,0.00,653.000000,,2013-03-01 23:01:00,
2013-03-01 16:32:00,53.0,20.0,-100.00,ENE,66,13.0,20.0,27,0.00,,,0.00,500.000000,,2013-03-01 23:32:00,
2013-03-01 16:42:00,53.0,20.0,-100.00,ENE,66,13.0,20.0,27,0.00,,,0.00,500.000000,,2013-03-01 23:42:00,
2013-03-01 16:52:00,53.0,20.0,-100.00,ENE,66,13.0,20.0,27,0.00,,,0.00,500.000000,,2013-03-01 23:52:00,
2013-03-01 17:01:00,53.0,20.0,-100.00,ENE,66,13.0,20.0,27,0.00,,,0.00,500.000000,,2013-03-02 00:01:00,
2013-03-01 17:32:00,52.0,19.0,-100.00,ENE,70,10.0,18.0,27,0.00,,,0.00,309.000000,,2013-03-02 00:32:00,
2013-03-01 17:42:00,52.0,19.0,-100.00,ENE,70,10.0,18.0,27,0.00,,,0.00,309.000000,,2013-03-02 00:42:00,
2013-03-01 17:52:00,52.0,19.0,-100.00,ENE,70,10.0,18.0,27,0.00,,,0.00,309.000000,,2013-03-02 00:52:00,
2013-03-01 18:01:00,52.0,19.0,-100.00,ENE,70,10.0,18.0,27,0.00,,,0.00,309.000000,,2013-03-02 01:01:00,
2013-03-01 18:32:00,49.0,16.0,-100.00,ENE,67,10.0,16.0,27,0.00,,,0.00,106.000000,,2013-03-02 01:32:00,
2013-03-01 18:42:00,49.0,16.0,-100.00,ENE,67,10.0,16.0,27,0.00,,,0.00,106.000000,,2013-03-02 01:42:00,
2013-03-01 18:52:00,49.0,16.0,-100.00,ENE,67,10.0,16.0,27,0.00,,,0.00,106.000000,,2013-03-02 01:52:00,
2013-03-01 19:01:00,49.0,16.0,-100.00,ENE,67,10.0,16.0,27,0.00,,,0.00,106.000000,,2013-03-02 02:01:00,
2013-03-01 19:32:00,44.0,17.0,-100.00,ENE,71,5.0,14.0,34,0.00,,,0.00,3.000000,,2013-03-02 02:32:00,
2013-03-01 19:42:00,44.0,17.0,-100.00,ENE,71,5.0,14.0,34,0.00,,,0.00,3.000000,,2013-03-02 02:42:00,
2013-03-01 19:52:00,44.0,17.0,-100.00,ENE,71,5.0,14.0,34,0.00,,,0.00,3.000000,,2013-03-02 02:52:00,
2013-03-01 20:01:00,44.0,17.0,-100.00,ENE,71,5.0,14.0,34,0.00,,,0.00,3.000000,,2013-03-02 03:01:00,
2013-03-01 20:32:00,39.0,17.0,-100.00,ENE,57,0.0,5.0,41,0.00,,,0.00,0.000000,,2013-03-02 03:32:00,
2013-03-01 20:42:00,39.0,17.0,-100.00,ENE,57,0.0,5.0,41,0.00,,,0.00,0.000000,,2013-03-02 03:42:00,
2013-03-01 20:52:00,39.0,17.0,-100.00,ENE,57,0.0,5.0,41,0.00,,,0.00,0.000000,,2013-03-02 03:52:00,
2013-03-01 21:01:00,39.0,17.0,-100.00,ENE,57,0.0,5.0,41,0.00,,,0.00,0.000000,,2013-03-02 04:01:00,
2013-03-01 21:32:00,31.0,18.0,-100.00,WNW,287,0.0,0.0,58,0.00,,,0.00,0.000000,,2013-03-02 04:32:00,
2013-03-01 21:42:00,31.0,18.0,-100.00,WNW,287,0.0,0.0,58,0.00,,,0.00,0.000000,,2013-03-02 04:42:00,
2013-03-01 21:52:00,31.0,18.0,-100.00,WNW,287,0.0,0.0,58,0.00,,,0.00,0.000000,,2013-03-02 04:52:00,
2013-03-01 22:01:00,31.0,18.0,-100.00,WNW,287,0.0,0.0,58,0.00,,,0.00,0.000000,,2013-03-02 05:01:00,
2013-03-01 22:32:00,29.0,18.0,-100.00,NNW,334,0.0,0.0,64,0.00,,,0.00,0.000000,,2013-03-02 05:32:00,
2013-03-01 22:42:00,29.0,18.0,-100.00,NNW,334,0.0,0.0,64,0.00,,,0.00,0.000000,,2013-03-02 05:42:00,
2013-03-01 22:52:00,29.0,18.0,-100.00,NNW,334,0.0,0.0,64,0.00,,,0.00,0.000000,,2013-03-02 05:52:00,
2013-03-01 23:01:00,29.0,18.0,-100.00,NNW,334,0.0,0.0,64,0.00,,,0.00,0.000000,,2013-03-02 06:01:00,
2013-03-01 23:32:00,27.0,19.0,-100.00,NW,311,0.0,0.0,70,0.00,,,0.00,0.000000,,2013-03-02 06:32:00,
2013-03-01 23:42:00,27.0,19.0,-100.00,NW,311,0.0,0.0,70,0.00,,,0.00,0.000000,,2013-03-02 06:42:00,
2013-03-01 23:52:00,27.0,19.0,-100.00,NW,311,0.0,0.0,70,0.00,,,0.00,0.000000,,2013-03-02 06:52:00,